Time;durP1;ratioP1;P1;durP2;ratioP2;P2;SDS_P1;SDS_P2;PMS_P1;PMS_P2;Temp;Humidity;BMP_temperature;BMP_pressure;BME280_temperature;BME280_humidity;BME280_pressure;Samples;Min_cycle;Max_cycle;Signal;HPM_P1;HPM_P2
2022/01/17 00:00:20;;;;;;;15.77;8.18;;;4.20;57.50;;;;;;4975342;28;21843;-66
2022/01/17 00:02:51;;;;;;;13.20;7.85;;;4.20;57.30;;;;;;4981357;28;20181;-67
2022/01/17 00:05:23;;;;;;;11.13;7.35;;;4.20;57.30;;;;;;4988818;28;20200;-67
2022/01/17 00:07:51;;;;;;;12.35;7.47;;;4.20;57.00;;;;;;4985051;28;20197;-67
2022/01/17 00:10:24;;;;;;;11.45;7.47;;;4.30;57.00;;;;;;4994458;28;20247;-66
2022/01/17 00:12:57;;;;;;;10.75;6.60;;;4.40;56.70;;;;;;4994147;28;20243;-67
2022/01/17 00:15:29;;;;;;;10.35;7.50;;;4.50;56.30;;;;;;4994641;28;20221;-66
2022/01/17 00:18:22;;;;;;;10.30;7.80;;;4.60;56.50;;;;;;4994904;28;20197;-66
2022/01/17 00:20:47;;;;;;;12.60;7.78;;;4.60;56.70;;;;;;4993322;28;20200;-66
2022/01/17 00:23:18;;;;;;;10.95;6.55;;;4.60;56.80;;;;;;4994860;28;20715;-66
2022/01/17 00:25:49;;;;;;;10.93;5.97;;;4.70;56.20;;;;;;4987617;28;20962;-66
2022/01/17 00:28:18;;;;;;;9.27;6.05;;;4.70;56.10;;;;;;4975435;28;20284;-67
2022/01/17 00:30:46;;;;;;;9.18;6.15;;;4.70;55.50;;;;;;4981719;28;20195;-66
2022/01/17 00:33:18;;;;;;;11.68;5.90;;;4.70;54.70;;;;;;4975011;28;20189;-67
2022/01/17 00:35:48;;;;;;;5.55;3.83;;;4.70;54.80;;;;;;4975475;28;20209;-66
2022/01/17 00:38:18;;;;;;;5.57;3.10;;;4.80;53.30;;;;;;4975280;28;20707;-67
2022/01/17 00:40:47;;;;;;;4.22;2.67;;;4.80;51.30;;;;;;4980274;28;20695;-66
2022/01/17 00:43:16;;;;;;;5.68;3.67;;;4.80;50.80;;;;;;4994458;28;20199;-66
2022/01/17 00:45:45;;;;;;;4.70;2.53;;;4.80;49.80;;;;;;4992353;28;20655;-66
2022/01/17 00:48:17;;;;;;;5.38;2.97;;;4.90;50.10;;;;;;4994085;28;20200;-67
2022/01/17 00:50:47;;;;;;;6.95;3.47;;;4.90;49.80;;;;;;4985711;28;20182;-66
2022/01/17 00:53:15;;;;;;;4.72;2.75;;;4.90;49.50;;;;;;4974896;28;20252;-66
2022/01/17 00:55:45;;;;;;;3.90;2.65;;;5.00;49.60;;;;;;4975436;28;20229;-67
2022/01/17 00:58:13;;;;;;;6.97;3.30;;;5.00;49.70;;;;;;4974891;28;20562;-67
2022/01/17 01:00:44;;;;;;;6.18;2.72;;;5.00;49.40;;;;;;4981444;28;20197;-66
2022/01/17 01:03:21;;;;;;;6.30;2.88;;;5.00;49.80;;;;;;4994073;28;20204;-66
2022/01/17 01:05:52;;;;;;;11.40;2.80;;;5.00;50.20;;;;;;4986053;28;20186;-66
2022/01/17 01:08:22;;;;;;;5.03;2.70;;;5.10;50.50;;;;;;4974722;28;20288;-67
2022/01/17 01:10:56;;;;;;;4.53;2.40;;;5.10;50.90;;;;;;4981251;28;20192;-66
2022/01/17 01:13:28;;;;;;;5.35;2.60;;;5.10;51.20;;;;;;4994193;28;20215;-67
2022/01/17 01:16:10;;;;;;;4.75;2.90;;;5.10;51.30;;;;;;4990608;28;20223;-67
2022/01/17 01:19:06;;;;;;;4.72;2.67;;;5.20;51.60;;;;;;4993536;28;20192;-66
2022/01/17 01:30:00;;;;;;;4.78;3.17;;;5.20;52.80;;;;;;4993729;28;20203;-67
2022/01/17 01:32:40;;;;;;;8.07;3.00;;;5.20;53.30;;;;;;4980775;28;20189;-66
2022/01/17 01:35:11;;;;;;;7.30;3.63;;;5.20;53.70;;;;;;4973746;28;20644;-66
2022/01/17 01:37:43;;;;;;;5.30;2.90;;;5.20;53.30;;;;;;4986769;28;20196;-66
2022/01/17 01:40:12;;;;;;;4.32;2.63;;;5.10;53.20;;;;;;4993342;28;20275;-66
2022/01/17 01:42:44;;;;;;;5.55;3.05;;;5.20;53.30;;;;;;4980315;28;20276;-67
2022/01/17 01:45:14;;;;;;;5.30;3.17;;;5.20;53.00;;;;;;4981800;28;20574;-66
2022/01/17 01:47:44;;;;;;;6.90;4.00;;;5.20;53.00;;;;;;4993358;28;20296;-66
2022/01/17 01:50:13;;;;;;;7.32;3.78;;;5.20;52.70;;;;;;4985066;28;20190;-66
2022/01/17 01:52:43;;;;;;;5.35;3.15;;;5.30;52.70;;;;;;4973872;28;20594;-66
2022/01/17 01:55:16;;;;;;;5.30;3.33;;;5.30;52.60;;;;;;4988894;28;21003;-66
2022/01/17 01:57:45;;;;;;;7.50;4.20;;;5.20;53.20;;;;;;4993273;28;20189;-67
2022/01/17 02:13:47;;;;;;;8.93;4.60;;;5.20;53.50;;;;;;6001905;22;3137650;-67
2022/01/17 02:16:16;;;;;;;9.05;4.50;;;5.00;54.40;;;;;;6133750;23;20173;-67
2022/01/17 02:18:45;;;;;;;7.57;4.63;;;4.90;54.50;;;;;;6133567;23;20168;-66
2022/01/17 02:21:19;;;;;;;8.32;5.20;;;5.00;54.50;;;;;;6133661;23;20196;-66
2022/01/17 02:23:48;;;;;;;7.32;4.32;;;5.00;54.50;;;;;;6133094;23;20231;-67
2022/01/17 02:26:17;;;;;;;6.85;4.28;;;4.90;54.40;;;;;;6133589;23;20169;-67
2022/01/17 02:28:47;;;;;;;6.80;4.30;;;4.90;54.50;;;;;;6133477;23;20171;-67
2022/01/17 02:31:14;;;;;;;7.93;4.85;;;4.90;54.60;;;;;;6133255;23;20175;-66
2022/01/17 02:33:41;;;;;;;10.80;5.00;;;4.90;54.70;;;;;;6133693;23;20169;-66
2022/01/17 02:36:10;;;;;;;10.20;4.75;;;4.90;54.80;;;;;;6133460;23;20165;-67
2022/01/17 02:38:39;;;;;;;7.68;4.85;;;4.90;54.90;;;;;;6133187;23;20172;-66
2022/01/17 02:41:06;;;;;;;6.60;3.50;;;4.90;55.00;;;;;;6133794;23;20169;-67
2022/01/17 02:43:34;;;;;;;9.45;3.85;;;4.90;55.30;;;;;;6133367;23;20165;-66
2022/01/17 02:48:53;;;;;;;10.30;5.13;;;4.90;55.50;;;;;;6133711;23;20191;-66
2022/01/17 02:51:20;;;;;;;8.73;4.75;;;4.90;55.70;;;;;;6133277;23;20199;-69
2022/01/17 02:53:50;;;;;;;6.20;4.53;;;4.90;55.80;;;;;;6133723;23;20172;-66
2022/01/17 02:56:20;;;;;;;5.60;3.53;;;4.90;56.20;;;;;;6133653;23;20169;-66
2022/01/17 02:58:48;;;;;;;5.72;4.10;;;5.00;56.40;;;;;;6133251;23;20664;-71
2022/01/17 03:01:17;;;;;;;6.55;3.63;;;5.00;56.20;;;;;;6133659;23;20252;-66
2022/01/17 03:03:48;;;;;;;6.88;4.38;;;5.00;56.60;;;;;;6133187;23;20243;-66
2022/01/17 03:06:16;;;;;;;7.22;3.88;;;5.00;56.70;;;;;;6133147;23;20156;-66
2022/01/17 03:08:45;;;;;;;7.07;4.35;;;5.00;57.00;;;;;;6133245;23;20643;-66
2022/01/17 03:11:16;;;;;;;8.23;4.32;;;5.00;57.00;;;;;;6132940;23;20175;-66
2022/01/17 03:13:44;;;;;;;6.60;3.95;;;5.00;57.20;;;;;;6128982;23;20648;-66
2022/01/17 03:16:14;;;;;;;8.40;4.07;;;5.00;57.40;;;;;;6126393;23;20625;-67
2022/01/17 03:18:45;;;;;;;6.30;3.55;;;5.10;57.60;;;;;;6126223;23;20181;-67
2022/01/17 03:21:15;;;;;;;8.75;4.43;;;5.00;57.90;;;;;;6126947;23;20475;-67
2022/01/17 03:23:44;;;;;;;6.93;4.10;;;5.00;57.90;;;;;;6126747;23;20177;-66
2022/01/17 03:26:13;;;;;;;6.00;3.90;;;4.90;58.40;;;;;;6125726;23;20473;-68
2022/01/17 03:28:41;;;;;;;7.22;4.47;;;4.80;58.60;;;;;;6126459;23;20169;-67
2022/01/17 03:31:09;;;;;;;5.20;3.38;;;4.90;58.80;;;;;;6126487;23;20181;-66
2022/01/17 03:33:38;;;;;;;7.60;4.38;;;4.80;59.00;;;;;;6126942;23;20533;-66
2022/01/17 03:36:06;;;;;;;6.25;3.97;;;4.80;59.40;;;;;;6126262;23;20178;-67
2022/01/17 03:38:35;;;;;;;7.00;4.20;;;4.80;59.40;;;;;;6125371;23;20251;-67
2022/01/17 03:41:07;;;;;;;5.20;3.85;;;4.80;59.60;;;;;;6126237;23;20168;-67
2022/01/17 03:43:36;;;;;;;7.05;4.18;;;4.70;59.80;;;;;;6126621;23;20185;-66
2022/01/17 03:46:05;;;;;;;5.60;3.50;;;4.70;60.20;;;;;;6126287;23;20176;-67
2022/01/17 03:48:34;;;;;;;4.30;2.47;;;4.70;60.30;;;;;;6125910;23;20165;-67
2022/01/17 03:51:03;;;;;;;5.97;3.80;;;4.70;60.70;;;;;;6126477;23;20168;-67
2022/01/17 03:53:32;;;;;;;6.10;3.40;;;4.70;61.10;;;;;;6126269;23;20173;-66
2022/01/17 03:55:59;;;;;;;4.93;3.05;;;4.70;61.10;;;;;;6126360;23;20157;-67
2022/01/17 03:58:27;;;;;;;6.65;3.38;;;4.70;61.50;;;;;;6126314;23;20173;-69
2022/01/17 04:00:57;;;;;;;6.70;3.83;;;4.60;61.60;;;;;;6126024;23;20169;-67
2022/01/17 04:03:26;;;;;;;7.32;3.97;;;4.60;61.90;;;;;;6126812;23;20486;-67
2022/01/17 04:05:55;;;;;;;5.43;3.25;;;4.60;61.90;;;;;;6126595;23;20475;-68
2022/01/17 04:08:23;;;;;;;6.68;3.60;;;4.60;62.20;;;;;;6126947;23;20552;-67
2022/01/17 04:10:50;;;;;;;7.10;4.72;;;4.70;62.30;;;;;;6126306;23;20684;-67
2022/01/17 04:13:18;;;;;;;7.45;3.95;;;4.70;62.50;;;;;;6125982;23;20663;-67
2022/01/17 04:15:45;;;;;;;5.97;3.28;;;4.70;62.80;;;;;;6126627;23;20647;-67
2022/01/17 04:18:15;;;;;;;7.03;3.03;;;4.70;63.10;;;;;;6126744;23;20394;-67
2022/01/17 04:20:44;;;;;;;6.22;3.50;;;4.70;63.20;;;;;;6125256;23;20175;-67
2022/01/17 04:23:13;;;;;;;5.53;3.80;;;4.70;63.10;;;;;;6126713;23;20193;-66
2022/01/17 04:25:41;;;;;;;8.23;3.53;;;4.70;63.30;;;;;;6125649;23;20169;-66
2022/01/17 04:28:10;;;;;;;8.00;4.05;;;4.70;63.50;;;;;;6126721;23;20527;-67
2022/01/17 04:30:39;;;;;;;5.78;3.40;;;4.60;63.40;;;;;;6126242;23;20165;-68
2022/01/17 04:33:07;;;;;;;4.78;2.90;;;4.60;63.40;;;;;;6126501;23;20219;-66
2022/01/17 04:35:37;;;;;;;6.50;3.50;;;4.60;63.70;;;;;;6126032;23;20220;-66
2022/01/17 04:38:08;;;;;;;5.50;3.25;;;4.50;63.50;;;;;;6126034;23;20176;-67
2022/01/17 04:40:37;;;;;;;5.65;3.53;;;4.60;63.40;;;;;;6125845;23;20157;-67
2022/01/17 04:43:06;;;;;;;5.97;4.10;;;4.50;63.50;;;;;;6126521;23;20193;-66
2022/01/17 04:45:33;;;;;;;5.70;3.50;;;4.50;63.40;;;;;;6125632;23;20215;-66
2022/01/17 04:48:01;;;;;;;5.90;3.80;;;4.50;63.30;;;;;;6126338;23;20228;-66
2022/01/17 04:50:32;;;;;;;6.05;3.90;;;4.40;63.50;;;;;;6125923;23;20169;-66
2022/01/17 04:53:01;;;;;;;6.10;3.90;;;4.40;65.20;;;;;;6126618;23;20153;-67
2022/01/17 04:55:29;;;;;;;4.97;3.58;;;4.30;65.20;;;;;;6125469;23;20202;-67
2022/01/17 04:57:57;;;;;;;4.38;3.03;;;4.40;65.70;;;;;;6126106;23;20492;-66
2022/01/17 05:00:26;;;;;;;5.05;2.92;;;4.30;66.30;;;;;;6125987;23;20169;-66
2022/01/17 05:02:55;;;;;;;5.38;3.20;;;4.40;66.80;;;;;;6125911;23;20193;-66
2022/01/17 05:05:22;;;;;;;4.25;2.60;;;4.40;67.40;;;;;;6126088;23;20180;-66
2022/01/17 05:07:52;;;;;;;5.03;2.65;;;4.40;67.30;;;;;;6126182;23;20169;-67
2022/01/17 05:10:22;;;;;;;3.72;2.40;;;4.50;67.50;;;;;;6125672;23;20173;-67
2022/01/17 05:12:53;;;;;;;5.60;2.50;;;4.50;67.90;;;;;;6126119;23;20272;-67
2022/01/17 05:15:28;;;;;;;3.58;2.25;;;4.50;67.80;;;;;;6126161;23;20457;-67
2022/01/17 05:18:12;;;;;;;5.57;2.40;;;4.50;67.70;;;;;;6125410;23;20597;-68
2022/01/17 05:20:40;;;;;;;3.42;2.40;;;4.60;67.60;;;;;;6125873;23;20193;-67
2022/01/17 05:23:08;;;;;;;7.25;3.00;;;4.60;68.00;;;;;;6125615;23;20279;-67
2022/01/17 05:25:38;;;;;;;4.10;2.28;;;4.60;67.60;;;;;;6126131;23;20169;-67
2022/01/17 05:28:05;;;;;;;2.70;1.88;;;4.60;67.80;;;;;;6124978;23;20180;-67
2022/01/17 05:30:33;;;;;;;4.30;2.75;;;4.60;68.00;;;;;;6125978;23;20169;-67
2022/01/17 05:33:01;;;;;;;4.15;2.25;;;4.70;68.00;;;;;;6125927;23;20499;-67
2022/01/17 05:35:34;;;;;;;2.88;1.92;;;4.70;67.80;;;;;;6125580;23;20253;-67
2022/01/17 05:38:01;;;;;;;3.90;2.10;;;4.70;68.00;;;;;;6125762;23;20158;-67
2022/01/17 05:40:29;;;;;;;3.83;2.17;;;4.70;68.10;;;;;;6125659;23;20497;-67
2022/01/17 05:42:58;;;;;;;3.92;2.85;;;4.70;67.90;;;;;;6126152;23;20193;-67
2022/01/17 05:45:25;;;;;;;4.15;2.63;;;4.70;68.10;;;;;;6125512;23;20251;-67
2022/01/17 05:47:53;;;;;;;3.53;2.00;;;4.70;67.90;;;;;;6125492;23;20169;-67
2022/01/17 05:50:21;;;;;;;3.47;1.92;;;4.70;68.10;;;;;;6125267;23;20168;-67
2022/01/17 05:52:48;;;;;;;5.32;3.20;;;4.70;67.90;;;;;;6125528;23;20169;-67
2022/01/17 05:55:16;;;;;;;2.97;1.88;;;4.80;67.80;;;;;;6125720;23;20169;-67
2022/01/17 05:57:49;;;;;;;3.35;1.67;;;4.80;67.80;;;;;;6125882;23;20248;-67
2022/01/17 06:00:19;;;;;;;2.88;1.60;;;4.70;68.10;;;;;;6125903;23;20157;-67
2022/01/17 06:02:46;;;;;;;3.58;2.15;;;4.80;68.30;;;;;;6125040;23;20738;-70
2022/01/17 06:05:13;;;;;;;3.80;2.05;;;4.80;69.00;;;;;;6125668;23;20183;-67
2022/01/17 06:07:41;;;;;;;3.03;1.77;;;4.80;68.40;;;;;;6125272;23;20176;-67
2022/01/17 06:10:09;;;;;;;2.53;1.60;;;4.80;68.20;;;;;;6125477;23;20629;-67
2022/01/17 06:12:36;;;;;;;2.90;2.10;;;4.90;68.20;;;;;;6124824;23;20660;-67
2022/01/17 06:15:05;;;;;;;4.25;1.65;;;4.90;67.90;;;;;;6125756;23;20196;-67
2022/01/17 06:17:34;;;;;;;3.42;1.90;;;5.00;67.80;;;;;;6124771;23;20223;-67
2022/01/17 06:20:01;;;;;;;4.07;1.67;;;5.10;67.40;;;;;;6125941;23;20165;-67
2022/01/17 06:22:28;;;;;;;2.72;1.95;;;5.10;67.20;;;;;;6124237;23;20727;-67
2022/01/17 06:24:55;;;;;;;2.22;1.52;;;5.20;67.10;;;;;;6125555;23;20228;-68
2022/01/17 06:27:23;;;;;;;2.20;1.40;;;5.20;66.80;;;;;;6125884;23;20209;-67
2022/01/17 06:29:52;;;;;;;2.30;1.70;;;5.20;66.60;;;;;;6123793;23;20525;-74
2022/01/17 06:32:20;;;;;;;3.58;2.00;;;5.20;66.40;;;;;;6125383;23;20169;-67
2022/01/17 06:34:50;;;;;;;4.55;2.20;;;5.30;66.50;;;;;;6124574;23;20168;-67
2022/01/17 06:37:17;;;;;;;4.20;2.15;;;5.30;66.50;;;;;;6124625;23;20481;-67
2022/01/17 06:39:45;;;;;;;3.97;2.50;;;5.30;66.40;;;;;;6124930;23;20223;-67
2022/01/17 06:42:12;;;;;;;3.42;2.15;;;5.30;66.60;;;;;;6124789;23;20220;-67
2022/01/17 06:44:40;;;;;;;3.85;2.33;;;5.30;66.30;;;;;;6124733;23;20175;-67
2022/01/17 06:47:07;;;;;;;3.55;2.08;;;5.30;66.40;;;;;;6124221;23;20180;-67
2022/01/17 06:49:34;;;;;;;3.67;1.95;;;5.40;66.40;;;;;;6126809;23;20240;-67
2022/01/17 06:52:03;;;;;;;3.65;2.47;;;5.40;66.30;;;;;;6126721;23;20700;-67
2022/01/17 06:54:30;;;;;;;4.30;3.03;;;5.40;66.50;;;;;;6126969;23;20542;-68
2022/01/17 06:56:58;;;;;;;6.50;2.75;;;5.40;66.40;;;;;;6126421;23;20198;-67
2022/01/17 06:59:25;;;;;;;4.38;2.13;;;5.40;66.50;;;;;;6126746;23;20169;-67
2022/01/17 07:01:53;;;;;;;5.82;2.17;;;5.40;66.30;;;;;;6126921;23;20196;-67
2022/01/17 07:04:20;;;;;;;4.20;2.90;;;5.40;66.10;;;;;;6126484;23;20200;-67
2022/01/17 07:06:48;;;;;;;4.78;2.80;;;5.50;66.10;;;;;;6126649;23;20165;-67
2022/01/17 07:09:19;;;;;;;4.82;2.63;;;5.50;66.00;;;;;;6126673;23;20257;-68
2022/01/17 07:11:46;;;;;;;3.80;2.50;;;5.50;65.70;;;;;;6126423;23;20215;-67
2022/01/17 07:14:13;;;;;;;3.67;2.40;;;5.50;65.70;;;;;;6126640;23;20232;-67
2022/01/17 07:16:42;;;;;;;4.82;2.75;;;5.50;65.70;;;;;;6126457;23;20171;-67
2022/01/17 07:19:13;;;;;;;4.07;2.95;;;5.50;65.60;;;;;;6123545;23;20200;-67
2022/01/17 07:21:41;;;;;;;5.75;3.42;;;5.60;65.50;;;;;;6126632;23;20153;-67
2022/01/17 07:24:08;;;;;;;3.20;2.20;;;5.60;65.60;;;;;;6126216;23;20312;-67
2022/01/17 07:26:36;;;;;;;3.08;2.22;;;5.50;65.40;;;;;;6126442;23;20165;-67
2022/01/17 07:29:08;;;;;;;5.00;3.20;;;5.60;65.40;;;;;;6125639;23;20668;-67
2022/01/17 07:31:35;;;;;;;4.13;2.47;;;5.60;65.40;;;;;;6125713;23;20161;-69
2022/01/17 07:34:02;;;;;;;4.15;2.35;;;5.60;65.40;;;;;;6125868;23;20176;-67
2022/01/17 07:36:29;;;;;;;3.22;2.28;;;5.60;65.30;;;;;;6126062;23;20272;-69
2022/01/17 07:38:56;;;;;;;4.90;2.65;;;5.60;65.30;;;;;;6126094;23;20169;-68
2022/01/17 07:41:23;;;;;;;3.63;2.03;;;5.70;65.30;;;;;;6126333;23;20220;-67
2022/01/17 07:44:08;;;;;;;3.63;2.45;;;5.70;65.30;;;;;;6126685;23;20197;-67
2022/01/17 07:46:46;;;;;;;5.18;2.85;;;5.60;65.20;;;;;;6123511;23;20172;-67
2022/01/17 07:49:20;;;;;;;3.45;2.25;;;5.60;65.30;;;;;;6125204;23;20156;-75
2022/01/17 07:51:50;;;;;;;4.60;2.75;;;5.60;65.40;;;;;;6126149;23;20161;-67
2022/01/17 07:54:18;;;;;;;4.38;2.25;;;5.60;65.60;;;;;;6125586;23;20166;-68
2022/01/17 07:56:47;;;;;;;3.45;2.15;;;5.60;65.60;;;;;;6125317;23;20169;-67
2022/01/17 07:59:25;;;;;;;4.03;1.95;;;5.70;65.50;;;;;;6126064;23;20169;-68
2022/01/17 08:01:54;;;;;;;3.78;2.30;;;5.60;65.50;;;;;;6125833;23;20157;-68
2022/01/17 08:04:21;;;;;;;3.20;2.10;;;5.60;65.60;;;;;;6122316;23;20683;-68
2022/01/17 08:06:49;;;;;;;3.03;2.00;;;5.60;66.10;;;;;;6124725;23;20232;-67
2022/01/17 08:09:22;;;;;;;4.00;2.88;;;5.60;66.30;;;;;;6121222;23;20169;-68
2022/01/17 08:12:01;;;;;;;3.15;2.33;;;5.60;66.20;;;;;;6120948;23;20196;-67
2022/01/17 08:14:30;;;;;;;4.15;2.38;;;5.60;66.00;;;;;;6123796;23;20189;-69
2022/01/17 08:17:01;;;;;;;5.70;3.25;;;5.70;66.20;;;;;;6123034;23;20165;-67
2022/01/17 08:19:30;;;;;;;4.22;2.75;;;5.70;66.40;;;;;;6124473;23;20169;-67
2022/01/17 08:21:57;;;;;;;4.45;2.75;;;5.70;66.10;;;;;;6123812;23;20165;-69
2022/01/17 08:24:31;;;;;;;6.90;3.20;;;5.70;66.40;;;;;;6123976;23;20280;-67
2022/01/17 08:26:59;;;;;;;3.08;2.10;;;5.70;66.40;;;;;;6125378;23;20165;-67
2022/01/17 08:29:28;;;;;;;3.70;3.08;;;5.70;66.40;;;;;;6125654;23;20169;-68
2022/01/17 08:31:59;;;;;;;2.88;2.10;;;5.80;66.40;;;;;;6125763;23;20199;-67
2022/01/17 08:34:31;;;;;;;6.68;2.70;;;5.90;66.20;;;;;;6123765;23;20526;-67
2022/01/17 08:36:58;;;;;;;4.05;2.50;;;6.00;65.60;;;;;;6125408;23;20613;-67
2022/01/17 08:39:26;;;;;;;4.25;2.95;;;6.00;65.40;;;;;;6125286;23;20188;-68
2022/01/17 08:41:55;;;;;;;5.68;3.72;;;6.10;65.00;;;;;;6125114;23;20165;-68
2022/01/17 08:44:23;;;;;;;3.47;2.28;;;6.20;64.30;;;;;;6125076;23;20197;-67
2022/01/17 08:46:51;;;;;;;3.72;2.50;;;6.20;63.70;;;;;;6125975;23;20546;-67
2022/01/17 08:49:24;;;;;;;4.75;3.00;;;6.20;63.50;;;;;;6125326;23;20621;-67
2022/01/17 08:51:54;;;;;;;4.78;2.20;;;6.40;63.60;;;;;;6126234;23;20160;-67
2022/01/17 08:54:34;;;;;;;3.42;2.40;;;6.50;63.30;;;;;;6125743;23;20231;-68
2022/01/17 08:57:01;;;;;;;3.42;2.50;;;6.60;62.80;;;;;;6125359;23;20215;-67
2022/01/17 08:59:31;;;;;;;3.38;1.70;;;6.70;62.60;;;;;;6126018;23;20172;-67
2022/01/17 09:01:59;;;;;;;3.45;2.00;;;6.70;62.10;;;;;;6125941;23;20216;-67
2022/01/17 09:04:28;;;;;;;2.97;2.15;;;6.90;62.30;;;;;;6124903;23;20193;-68
2022/01/17 09:07:01;;;;;;;4.03;2.60;;;7.00;61.80;;;;;;6125550;23;20617;-67
2022/01/17 09:09:28;;;;;;;4.38;3.30;;;7.10;61.40;;;;;;6125534;23;20153;-67
2022/01/17 09:11:56;;;;;;;8.32;2.95;;;7.20;60.50;;;;;;6124958;23;20189;-68
2022/01/17 09:14:28;;;;;;;4.30;2.25;;;7.20;59.90;;;;;;6125635;23;20257;-68
2022/01/17 09:16:59;;;;;;;4.05;2.30;;;7.20;59.60;;;;;;6125040;23;20153;-68
2022/01/17 09:19:31;;;;;;;5.72;2.58;;;7.20;59.60;;;;;;6125748;23;20157;-67
2022/01/17 09:21:59;;;;;;;5.88;3.75;;;7.20;59.70;;;;;;6125958;23;20236;-67
2022/01/17 09:24:39;;;;;;;6.43;3.05;;;7.30;59.60;;;;;;6125260;23;20711;-67
2022/01/17 09:27:10;;;;;;;8.57;2.70;;;7.40;59.50;;;;;;6125848;23;20232;-68
2022/01/17 09:29:38;;;;;;;5.35;2.78;;;7.40;58.70;;;;;;6125302;23;20237;-67
2022/01/17 09:32:09;;;;;;;3.72;2.60;;;7.40;58.60;;;;;;6125891;23;20173;-67
2022/01/17 09:34:38;;;;;;;3.67;2.30;;;7.50;58.70;;;;;;6125283;23;20253;-67
2022/01/17 09:37:08;;;;;;;5.10;3.00;;;7.50;58.90;;;;;;6125126;23;20173;-67
2022/01/17 09:39:40;;;;;;;5.13;3.00;;;7.60;59.10;;;;;;6125374;23;20248;-67
2022/01/17 09:42:09;;;;;;;4.45;2.70;;;7.70;58.40;;;;;;6125433;23;20164;-67
2022/01/17 09:44:38;;;;;;;4.43;2.40;;;7.80;58.40;;;;;;6125196;23;20667;-67
2022/01/17 09:47:12;;;;;;;3.72;2.50;;;7.90;58.40;;;;;;6125836;23;20169;-67
2022/01/17 09:49:50;;;;;;;7.38;2.75;;;8.00;58.80;;;;;;6124447;23;20208;-68
2022/01/17 09:52:35;;;;;;;4.22;2.50;;;8.30;59.50;;;;;;6125642;23;20516;-68
2022/01/17 09:55:12;;;;;;;4.20;2.60;;;8.60;57.50;;;;;;6125028;23;20208;-68
2022/01/17 09:57:42;;;;;;;4.22;3.35;;;9.30;56.60;;;;;;6124901;23;20466;-68
2022/01/17 10:00:13;;;;;;;4.95;3.17;;;9.60;54.80;;;;;;6125355;23;20153;-68
2022/01/17 10:02:42;;;;;;;4.60;2.60;;;10.00;53.30;;;;;;6124555;23;20169;-68
2022/01/17 10:05:12;;;;;;;4.20;2.60;;;10.50;54.00;;;;;;6124964;23;20193;-67
2022/01/17 10:07:55;;;;;;;5.63;2.55;;;11.20;51.80;;;;;;6124368;23;20173;-68
2022/01/17 10:10:42;;;;;;;5.10;3.53;;;11.90;50.70;;;;;;6122920;23;20161;-68
2022/01/17 10:13:12;;;;;;;6.32;2.47;;;12.50;48.90;;;;;;6123842;23;20528;-68
2022/01/17 10:15:48;;;;;;;4.72;3.13;;;13.00;48.40;;;;;;6125269;23;20241;-68
2022/01/17 10:18:38;;;;;;;4.30;3.00;;;13.50;46.10;;;;;;6124356;23;20252;-68
2022/01/17 10:21:14;;;;;;;3.55;2.45;;;13.90;44.50;;;;;;6125170;23;20161;-68
2022/01/17 10:24:02;;;;;;;3.93;3.00;;;14.50;44.70;;;;;;6125284;23;20194;-68
2022/01/17 10:35:11;;;;;;;5.20;3.50;;;17.10;38.20;;;;;;6127095;23;20381;-68
2022/01/17 10:37:42;;;;;;;6.83;2.80;;;17.70;36.10;;;;;;6127258;23;20443;-68
2022/01/17 10:40:15;;;;;;;5.23;2.40;;;18.20;35.80;;;;;;6126434;23;20400;-68
2022/01/17 10:42:48;;;;;;;5.03;2.63;;;18.60;34.40;;;;;;6127234;23;20468;-69
2022/01/17 10:45:22;;;;;;;4.30;1.93;;;18.50;32.80;;;;;;6127557;23;20432;-68
2022/01/17 10:47:53;;;;;;;3.40;2.00;;;18.80;33.50;;;;;;6126565;23;20388;-68
2022/01/17 10:50:24;;;;;;;3.27;2.10;;;19.40;33.40;;;;;;6127058;23;20388;-68
2022/01/17 10:52:57;;;;;;;3.00;2.03;;;19.40;30.90;;;;;;6125034;23;20514;-68
2022/01/17 10:55:27;;;;;;;2.93;2.00;;;19.50;32.40;;;;;;6126603;23;20902;-70
2022/01/17 10:57:56;;;;;;;3.53;2.23;;;19.90;31.20;;;;;;6126788;23;20416;-68
2022/01/17 11:00:26;;;;;;;3.10;2.10;;;20.20;31.20;;;;;;6126552;23;20396;-68
2022/01/17 11:03:02;;;;;;;4.90;1.87;;;20.50;29.80;;;;;;6126455;23;20392;-68
2022/01/17 11:05:32;;;;;;;3.13;1.90;;;20.40;29.60;;;;;;6127072;23;20431;-68
2022/01/17 11:08:02;;;;;;;6.77;2.23;;;20.50;30.00;;;;;;6126807;23;20654;-68
2022/01/17 11:10:32;;;;;;;4.83;2.63;;;21.00;29.90;;;;;;6126419;23;20417;-68
2022/01/17 11:13:05;;;;;;;4.80;2.70;;;21.40;29.10;;;;;;6125683;23;20616;-68
2022/01/17 11:15:35;;;;;;;3.40;2.37;;;21.40;28.10;;;;;;6126443;23;20381;-68
2022/01/17 11:18:10;;;;;;;4.30;2.97;;;21.40;27.80;;;;;;6126442;23;20853;-68
2022/01/17 11:20:39;;;;;;;6.23;3.50;;;21.60;27.90;;;;;;6126015;23;20447;-68
2022/01/17 11:23:08;;;;;;;4.87;3.10;;;22.00;27.90;;;;;;6126577;23;20468;-68
2022/01/17 11:25:37;;;;;;;4.93;2.97;;;22.30;27.40;;;;;;6123755;23;20440;-68
2022/01/17 11:28:08;;;;;;;5.37;2.93;;;22.60;26.60;;;;;;6125765;23;20455;-68
2022/01/17 11:30:37;;;;;;;6.27;3.17;;;22.60;26.40;;;;;;6126505;23;20447;-68
2022/01/17 11:33:07;;;;;;;3.97;2.90;;;22.50;25.90;;;;;;6126230;23;20424;-69
2022/01/17 11:35:52;;;;;;;4.73;3.40;;;22.60;26.30;;;;;;6126462;23;20754;-68
2022/01/17 11:38:29;;;;;;;4.73;3.13;;;22.40;25.60;;;;;;6125983;23;20476;-68
2022/01/17 11:40:58;;;;;;;4.40;2.70;;;21.80;25.90;;;;;;6120389;23;20856;-68
2022/01/17 11:43:34;;;;;;;4.90;2.93;;;21.60;26.30;;;;;;6125843;23;20452;-68
2022/01/17 11:46:26;;;;;;;4.87;2.60;;;21.50;26.10;;;;;;6125331;23;20432;-69
2022/01/17 11:48:56;;;;;;;4.77;3.37;;;21.60;26.60;;;;;;6125568;23;20396;-69
2022/01/17 11:51:25;;;;;;;4.27;2.93;;;21.50;26.40;;;;;;6123238;23;20400;-68
2022/01/17 11:53:56;;;;;;;4.43;2.90;;;21.50;26.80;;;;;;6126840;23;20440;-68
2022/01/17 11:56:46;;;;;;;6.00;3.80;;;22.00;27.00;;;;;;6125667;23;20875;-68
2022/01/17 11:59:37;;;;;;;4.17;2.77;;;22.50;26.40;;;;;;6125999;23;20447;-66
2022/01/17 12:02:34;;;;;;;4.30;2.57;;;22.50;25.70;;;;;;6125868;23;20457;-66
2022/01/17 12:05:42;;;;;;;3.97;2.80;;;22.40;25.50;;;;;;6126675;23;20432;-73
2022/01/17 12:08:11;;;;;;;6.43;4.00;;;22.40;25.70;;;;;;6125878;23;20416;-66
2022/01/17 12:10:53;;;;;;;6.90;4.80;;;22.40;25.10;;;;;;6125863;23;20464;-66
2022/01/17 12:13:37;;;;;;;3.63;2.40;;;21.90;25.30;;;;;;6125538;23;20464;-65
2022/01/17 12:16:11;;;;;;;3.20;1.90;;;21.00;25.30;;;;;;6126046;23;20396;-65
2022/01/17 12:18:40;;;;;;;4.50;2.10;;;20.00;26.20;;;;;;6125734;23;20400;-66
2022/01/17 12:21:32;;;;;;;3.70;1.70;;;19.70;26.70;;;;;;6126399;23;20397;-66
2022/01/17 12:24:31;;;;;;;3.80;2.37;;;19.50;26.90;;;;;;6125910;23;20393;-68
2022/01/17 12:27:12;;;;;;;3.50;2.10;;;19.50;27.80;;;;;;6002107;23;20401;-70
2022/01/17 12:29:42;;;;;;;3.97;2.40;;;19.90;27.40;;;;;;6111176;23;20482;-68
2022/01/17 12:32:49;;;;;;;3.30;2.00;;;20.00;26.70;;;;;;6126388;23;20384;-68
2022/01/17 12:35:30;;;;;;;3.40;1.90;;;19.40;26.80;;;;;;6122393;23;20427;-68
2022/01/17 12:38:13;;;;;;;3.83;1.40;;;18.50;27.40;;;;;;6125266;23;20466;-68
2022/01/17 12:40:43;;;;;;;4.80;1.73;;;18.10;28.30;;;;;;6125373;23;20737;-68
2022/01/17 12:43:13;;;;;;;2.47;1.43;;;18.00;28.90;;;;;;6125588;23;20401;-68
2022/01/17 12:45:42;;;;;;;3.20;1.57;;;18.00;29.00;;;;;;6124806;23;20948;-68
2022/01/17 12:48:12;;;;;;;4.00;1.70;;;18.00;29.10;;;;;;6125217;23;20404;-68
2022/01/17 12:50:47;;;;;;;4.23;2.07;;;17.90;29.20;;;;;;6124781;23;20408;-68
2022/01/17 12:53:19;;;;;;;2.40;1.30;;;17.80;29.10;;;;;;6125919;23;20391;-68
2022/01/17 12:55:51;;;;;;;3.83;1.90;;;17.80;29.50;;;;;;6125545;23;20484;-68
2022/01/17 12:58:31;;;;;;;3.07;1.30;;;18.00;29.10;;;;;;6123638;23;20425;-69
2022/01/17 13:01:01;;;;;;;4.43;1.60;;;18.40;28.90;;;;;;6125044;23;20385;-68
2022/01/17 13:03:42;;;;;;;4.67;1.53;;;18.10;28.70;;;;;;6125828;23;20391;-68
2022/01/17 13:06:13;;;;;;;3.40;1.33;;;17.30;28.70;;;;;;6124809;23;20439;-68
2022/01/17 13:08:43;;;;;;;3.23;1.60;;;16.60;29.30;;;;;;6125286;23;20900;-68
2022/01/17 13:11:16;;;;;;;4.03;1.57;;;15.90;30.00;;;;;;6124647;23;20904;-68
2022/01/17 13:13:59;;;;;;;4.70;1.50;;;15.40;30.80;;;;;;6125834;23;20429;-67
2022/01/17 13:16:30;;;;;;;2.40;1.50;;;14.80;31.60;;;;;;6124692;23;20403;-68
2022/01/17 13:18:59;;;;;;;2.97;1.80;;;14.30;32.40;;;;;;6125426;23;20812;-68
2022/01/17 13:21:27;;;;;;;2.40;1.50;;;14.00;33.30;;;;;;6124845;23;20396;-68
2022/01/17 13:23:59;;;;;;;3.50;1.53;;;13.70;33.70;;;;;;6125503;23;20403;-68
2022/01/17 13:26:29;;;;;;;2.73;1.53;;;13.50;33.90;;;;;;6124396;23;20448;-68
2022/01/17 13:29:01;;;;;;;2.80;1.50;;;13.60;34.80;;;;;;6125380;23;20724;-69
2022/01/17 13:31:30;;;;;;;5.50;1.77;;;13.90;35.40;;;;;;6124985;23;20751;-67
2022/01/17 13:34:10;;;;;;;2.60;1.40;;;14.40;34.70;;;;;;6125006;23;20405;-68
2022/01/17 13:36:39;;;;;;;3.80;1.87;;;14.90;34.40;;;;;;6125105;23;20389;-68
2022/01/17 13:39:09;;;;;;;2.40;1.60;;;15.30;34.20;;;;;;6125145;23;20397;-68
2022/01/17 13:41:43;;;;;;;2.50;1.07;;;15.60;32.90;;;;;;6124286;23;20433;-69
2022/01/17 13:44:12;;;;;;;3.33;1.10;;;15.70;32.30;;;;;;6125222;23;20392;-67
2022/01/17 13:46:54;;;;;;;4.90;1.10;;;15.70;31.90;;;;;;6125057;23;20455;-68